Flight Track Log - Related Links

Times and Time Zones

All times are in EST time to prevent confusion due to time zone crossing. See the UPS1337 flight status page for this flight to view local times or setup timezone preferences in your user account.

Time Position Orientation Groundspeed Altitude Reporting Facility
EST Latitude Longitude Course Direction KTS MPH feet Rate Location/Type
Thu 09:49:04 PM 27.9333 -82.7000 360° North 167 192 900  Level Tampa TRACON
Thu 09:49:40 PM 27.9500 -82.7000 345° North 208 239 2,300 2,833 Climbing Tampa TRACON
Thu 09:50:52 PM 28.0500 -82.7000 360° North 274 315 6,000 2,789 Climbing Tampa TRACON
Thu 09:53:13 PM 28.2292 -82.7017 360° North 302 348 12,200 2,567 Climbing Jacksonville Center
Thu 09:54:13 PM 28.3356 -82.7017 360° North 344 396 14,600 2,850 Climbing Jacksonville Center
Thu 09:55:13 PM 28.4481 -82.6967 North 381 438 17,900 2,238 Climbing Jacksonville Center
Thu 10:00:23 PM 29.1227 -82.6542 North 490 564 28,400 1,937 Climbing FlightAware ADS-B
Thu 10:01:00 PM 29.2076 -82.6497 North 500 575 29,100 1,101 Climbing FlightAware ADS-B
Thu 10:03:50 PM 29.5893 -82.6269 North 489 563 32,200 1,015 Climbing FlightAware ADS-B
Thu 10:04:21 PM 29.6642 -82.6224 North 488 562 32,500 590 Climbing FlightAware ADS-B
Thu 10:04:51 PM 29.7268 -82.6188 North 487 560 32,800 492 Climbing FlightAware ADS-B
Thu 10:05:22 PM 29.8017 -82.6142 North 489 563 33,000 129 Climbing FlightAware ADS-B
Thu 10:06:24 PM 29.9389 -82.6059 North 488 562 33,000  Level FlightAware ADS-B
Thu 10:07:04 PM 30.0329 -82.6002 North 485 558 33,000  Level FlightAware ADS-B
Thu 10:07:34 PM 30.0992 -82.5962 North 485 558 33,000  Level FlightAware ADS-B
Thu 10:08:04 PM 30.1680 -82.5921 North 486 559 33,000  Level FlightAware ADS-B
Thu 10:08:44 PM 30.2542 -82.5869 North 488 562 33,000  Level FlightAware ADS-B
Thu 10:10:45 PM 30.5326 -82.5698 North 492 566 33,000  Level FlightAware ADS-B
Thu 10:12:12 PM 30.7086 -82.5614 North 483 556 33,000  Level Jacksonville Center
Thu 10:13:12 PM 30.8444 -82.5539 North 483 556 33,000  Level Jacksonville Center
Thu 10:14:12 PM 30.9800 -82.5436 North 483 556 33,000  Level Jacksonville Center
Thu 10:15:12 PM 31.1158 -82.5333 North 483 556 33,000  Level Jacksonville Center
Thu 10:16:12 PM 31.2514 -82.5281 North 483 556 33,000  Level Jacksonville Center
Thu 10:17:51 PM 31.4722 -82.5147 North 494 568 33,000  Level Atlanta Center
Thu 10:18:51 PM 31.6017 -82.5344 353° North 488 562 33,000  Level Atlanta Center
Thu 10:19:51 PM 31.7253 -82.5739 345° North 469 540 33,000  Level Atlanta Center
Thu 10:20:51 PM 31.8469 -82.6136 345° North 455 524 33,000  Level Atlanta Center
Thu 10:21:51 PM 31.9683 -82.6531 345° North 455 524 33,000  Level Atlanta Center
Thu 10:22:51 PM 32.0900 -82.6931 344° North 455 524 33,000  Level Atlanta Center
Thu 10:23:51 PM 32.2114 -82.7328 345° North 455 524 33,000 400 Level Atlanta Center
Thu 10:24:51 PM 32.3328 -82.7753 344° North 455 524 33,800 500 Climbing Atlanta Center
Thu 10:25:51 PM 32.4522 -82.8253 341° North 455 524 34,000 100 Climbing Atlanta Center
Thu 10:26:51 PM 32.5803 -82.8728 343° North 455 524 34,000  Level Atlanta Center
Thu 10:27:51 PM 32.7017 -82.9206 342° North 444 511 34,000  Level Atlanta Center
Thu 10:28:51 PM 32.8211 -82.9661 342° North 452 520 34,000  Level Atlanta Center
Thu 10:29:51 PM 32.9383 -83.0117 342° North 447 514 34,000  Level Atlanta Center
Thu 10:30:51 PM 33.0578 -83.0597 341° North 447 514 34,000  Level Atlanta Center
Thu 10:31:51 PM 33.1769 -83.1056 342° North 448 516 34,000  Level Atlanta Center
Thu 10:32:51 PM 33.2922 -83.1517 342° North 442 509 34,000  Level Atlanta Center
Thu 10:33:51 PM 33.4114 -83.1978 342° North 442 509 34,000  Level Atlanta Center
Thu 10:34:51 PM 33.5267 -83.2439 342° North 442 509 34,000  Level Atlanta Center
Thu 10:40:30 PM 34.1994 -83.5062 341° North 427 491 34,000  Level FlightAware ADS-B (KDZJ)
Thu 10:41:11 PM 34.2768 -83.5372 342° North 439 505 34,000  Level FlightAware ADS-B (KDZJ)
Thu 10:41:46 PM 34.3465 -83.5652 342° North 440 506 34,000  Level FlightAware ADS-B (KDZJ)
Thu 10:42:30 PM 34.4305 -83.5990 342° North 438 504 34,000  Level FlightAware ADS-B (KDZJ)
Thu 10:43:09 PM 34.5048 -83.6290 341° North 427 491 34,000  Level FlightAware ADS-B (KDZJ)
Thu 10:43:48 PM 34.5801 -83.6592 341° North 425 489 34,000  Level FlightAware ADS-B (KDZJ)
Thu 10:44:30 PM 34.6591 -83.6910 341° North 422 486 34,000  Level FlightAware ADS-B (KDZJ)
Thu 10:45:08 PM 34.7306 -83.7200 341° North 426 490 34,000  Level FlightAware ADS-B (KDZJ)
Thu 10:45:49 PM 34.8063 -83.7511 342° North 423 487 34,000  Level FlightAware ADS-B (KDZJ)
Thu 10:46:29 PM 34.8819 -83.7816 342° North 426 490 34,000  Level FlightAware ADS-B (KDZJ)
Thu 10:47:10 PM 34.9589 -83.8130 341° North 423 487 34,000  Level FlightAware ADS-B (KDZJ)
Thu 10:47:51 PM 35.0354 -83.8444 341° North 426 490 34,000  Level FlightAware ADS-B (KDZJ)
Thu 10:48:31 PM 35.1119 -83.8756 341° North 427 491 34,000  Level FlightAware ADS-B (KDZJ)
Thu 10:49:10 PM 35.1876 -83.9066 341° North 426 490 34,000  Level FlightAware ADS-B (KDZJ)
Thu 10:49:50 PM 35.2622 -83.9372 341° North 425 489 34,000  Level FlightAware ADS-B (KDZJ)
Thu 10:50:28 PM 35.3341 -83.9667 341° North 424 488 34,000  Level FlightAware ADS-B (KDZJ)
Thu 10:51:53 PM 35.4653 -84.0203 341° North 392 451 34,000  Level Indianapolis Center
Thu 10:52:54 PM 35.5981 -84.0758 341° North 423 487 34,000  Level Indianapolis Center
Thu 10:53:51 PM 35.6911 -84.1181 340° North 428 493 34,000  Level Atlanta Center
Thu 10:54:51 PM 35.8036 -84.1642 342° North 428 493 34,000  Level Atlanta Center
Thu 10:55:51 PM 35.9164 -84.2081 343° North 428 493 34,000 -508 Level Atlanta Center
Thu 10:58:00 PM 36.1658 -84.3125 341° North 428 493 32,400 -821 Descending Indianapolis Center
Thu 10:59:01 PM 36.2700 -84.3558 341° North 424 488 31,400 -984 Descending Indianapolis Center
Thu 11:00:02 PM 36.3803 -84.4036 341° North 423 487 30,400 -836 Descending Indianapolis Center
Thu 11:01:03 PM 36.4917 -84.4506 341° North 423 487 29,700 -927 Descending Indianapolis Center
Thu 11:02:05 PM 36.6061 -84.4994 341° North 410 472 28,500 -1,133 Descending Indianapolis Center
Thu 11:08:12 PM 37.2041 -84.7562 341° North 353 406 21,600 -1,051 Descending FlightAware ADS-B
Thu 11:09:13 PM 37.2975 -84.7971 341° North 349 402 21,000 -744 Descending FlightAware ADS-B
Thu 11:10:13 PM 37.3828 -84.8339 340° North 322 371 20,100 -1,286 Descending FlightAware ADS-B
Thu 11:11:19 PM 37.4776 -84.8758 341° North 315 362 18,300 -1,951 Descending FlightAware ADS-B
Thu 11:12:16 PM 37.5534 -84.9087 341° North 310 357 16,100 -2,186 Descending FlightAware ADS-B (KCVG)
Thu 11:13:17 PM 37.6230 -84.9389 341° North 292 336 14,000 -2,072 Descending FlightAware ADS-B
Thu 11:14:35 PM 37.7040 -85.0208 311° West 256 295 11,300 -1,809 Descending FlightAware ADS-B
Thu 11:15:33 PM 37.7500 -85.0848 312° West 245 282 9,900 -1,150 Descending FlightAware ADS-B
Thu 11:16:35 PM 37.7872 -85.1519 294° West 237 273 9,000 -891 Descending FlightAware ADS-B
Thu 11:17:41 PM 37.8159 -85.2370 292° West 239 275 8,000 -571 Descending FlightAware ADS-B
Thu 11:18:41 PM 37.8434 -85.3163 294° West 239 275 7,800 -100 Descending FlightAware ADS-B
Thu 11:19:41 PM 37.8695 -85.3930 293° West 238 274 7,800  Level FlightAware ADS-B
Thu 11:20:05 PM 37.8797 -85.4235 293° West 238 274 7,800 -700 Level FlightAware ADS-B (EPWR / WRO)
Thu 11:20:41 PM 37.8956 -85.4697 294° West 236 272 7,100 -1,438 Descending FlightAware ADS-B
Thu 11:21:41 PM 37.9210 -85.5466 292° West 239 275 5,500 -1,658 Descending FlightAware ADS-B
Thu 11:21:57 PM 37.9269 -85.5668 285° West 239 275 5,000 -875 Descending FlightAware ADS-B (EPWR / WRO)
Thu 11:22:29 PM 37.9186 -85.6076 245° Southwest 223 257 4,800 -444 Descending FlightAware ADS-B (EPWR / WRO)
Thu 11:22:51 PM 37.9120 -85.6310 255° West 206 237 4,600 -720 Descending FlightAware ADS-B (EPWR / WRO)
Thu 11:22:54 PM 37.9120 -85.6363 273° West 205 236 4,500 -750 Descending FlightAware ADS-B
Thu 11:22:59 PM 37.9128 -85.6418 296° West 208 239 4,500 -1,200 Level FlightAware ADS-B (EPWR / WRO)
Thu 11:23:19 PM 37.9203 -85.6572 318° Northwest 213 245 4,000 -1,059 Descending FlightAware ADS-B (EPWR / WRO)
Thu 11:23:33 PM 37.9370 -85.6690 340° North 215 247 3,900 -255 Descending FlightAware ADS-B (EPWR / WRO)
Thu 11:24:06 PM 37.9694 -85.6790 349° North 212 244 3,800 -617 Descending FlightAware ADS-B
Thu 11:25:20 PM 38.0335 -85.6976 344° North 184 212 2,800 -864 Descending FlightAware ADS-B
Thu 11:26:18 PM 38.0736 -85.7125 346° North 128 147 1,900 -756 Descending FlightAware ADS-B
Thu 11:27:19 PM 38.1090 -85.7230 346° North 125 144 1,300 -621 Descending FlightAware ADS-B
Thu 11:27:45 PM 38.1139 -85.7246 345° North 125 144 1,000 -692 Descending FlightAware ADS-B
Thu 11:35:00 PM 38.1667 -85.7333 208° Southwest  Level FlightAware Approximate
Thu 11:36:00 PM 38.1741 -85.7365 208° Southwest  Level Estimated

Login

Don't have an account? Register now (free) for customized features, flight alerts, and more!